Time;durP1;ratioP1;P1;durP2;ratioP2;P2;SDS_P1;SDS_P2;PMS_P1;PMS_P2;Temp;Humidity;BMP_temperature;BMP_pressure;BME280_temperature;BME280_humidity;BME280_pressure;Samples;Min_cycle;Max_cycle;Signal;HPM_P1;HPM_P2
2022/03/14 00:01:51;;;;;;;15.23;10.53;;;9.90;70.30;;;;;;4988429;28;20951;-87
2022/03/14 00:04:18;;;;;;;15.57;10.60;;;9.90;70.40;;;;;;4984751;28;20445;-87
2022/03/14 00:06:48;;;;;;;15.37;10.70;;;9.80;70.40;;;;;;4989371;28;20456;-87
2022/03/14 00:09:16;;;;;;;14.50;11.43;;;9.80;70.30;;;;;;4997945;28;20468;-86
2022/03/14 00:11:43;;;;;;;17.03;12.03;;;9.90;70.30;;;;;;4991875;28;20560;-88
2022/03/14 00:14:10;;;;;;;17.60;11.83;;;10.00;68.90;;;;;;4987412;28;20456;-88
2022/03/14 00:16:41;;;;;;;17.57;11.53;;;10.10;68.50;;;;;;4986392;28;20490;-88
2022/03/14 00:19:09;;;;;;;23.07;11.47;;;10.10;68.10;;;;;;4986799;28;20437;-87
2022/03/14 00:21:38;;;;;;;15.10;10.90;;;10.10;68.70;;;;;;4986772;28;20460;-87
2022/03/14 00:24:07;;;;;;;16.07;10.80;;;10.10;69.00;;;;;;4984130;28;20878;-87
2022/03/14 00:26:34;;;;;;;17.73;11.13;;;10.00;69.40;;;;;;4984216;28;20487;-86
2022/03/14 00:29:01;;;;;;;16.27;10.67;;;9.90;71.20;;;;;;4989354;28;20491;-86
2022/03/14 00:31:28;;;;;;;16.00;10.20;;;9.90;71.90;;;;;;4981671;28;20435;-86
2022/03/14 00:33:55;;;;;;;23.47;10.97;;;9.90;72.00;;;;;;4981907;28;20480;-86
2022/03/14 00:36:25;;;;;;;15.13;10.40;;;10.00;70.80;;;;;;4981647;28;20454;-86
2022/03/14 00:38:53;;;;;;;16.27;11.20;;;10.00;70.70;;;;;;4982817;28;20970;-86
2022/03/14 00:41:20;;;;;;;17.23;11.20;;;10.00;70.20;;;;;;4983762;28;20464;-87
2022/03/14 00:43:47;;;;;;;16.03;11.70;;;10.10;70.00;;;;;;4986103;28;20461;-87
2022/03/14 00:46:16;;;;;;;17.43;10.47;;;10.30;69.90;;;;;;4979682;28;20617;-87
2022/03/14 00:51:18;;;;;;;25.07;14.73;;;10.30;68.40;;;;;;4991062;28;20452;-88
2022/03/14 00:53:46;;;;;;;16.90;10.87;;;10.20;68.90;;;;;;4989808;28;20567;-87
2022/03/14 00:56:13;;;;;;;18.13;12.10;;;10.10;69.20;;;;;;4983960;28;20513;-87
2022/03/14 00:58:40;;;;;;;18.40;11.30;;;10.20;69.50;;;;;;4983653;28;20502;-86
2022/03/14 01:01:07;;;;;;;17.53;10.93;;;10.30;69.20;;;;;;4982571;28;20491;-87
2022/03/14 01:03:35;;;;;;;14.60;9.73;;;10.50;68.50;;;;;;4982356;28;20452;-86
2022/03/14 01:06:01;;;;;;;19.80;12.50;;;10.50;67.60;;;;;;4984803;28;20432;-85
2022/03/14 01:08:28;;;;;;;19.77;10.97;;;10.50;67.70;;;;;;4999055;28;20470;-87
2022/03/14 01:10:56;;;;;;;19.10;11.07;;;10.50;67.80;;;;;;4985399;28;20468;-87
2022/03/14 01:13:23;;;;;;;16.80;11.63;;;10.40;67.50;;;;;;4984011;28;20484;-87
2022/03/14 01:15:50;;;;;;;18.13;10.90;;;10.50;67.50;;;;;;4983162;28;20510;-86
2022/03/14 01:18:17;;;;;;;15.27;11.00;;;10.50;67.70;;;;;;4983627;28;20847;-87
2022/03/14 01:20:44;;;;;;;16.93;11.30;;;10.50;67.50;;;;;;4982837;28;20555;-87
2022/03/14 01:23:12;;;;;;;17.37;12.20;;;10.60;68.00;;;;;;4985238;28;20528;-88
2022/03/14 01:25:43;;;;;;;22.50;11.93;;;10.70;69.20;;;;;;4983338;28;20464;-88
2022/03/14 01:28:11;;;;;;;17.80;12.10;;;10.80;69.30;;;;;;4981984;28;20451;-88
2022/03/14 01:30:39;;;;;;;21.23;13.33;;;10.90;71.20;;;;;;4982344;28;20538;-87
2022/03/14 01:33:06;;;;;;;20.50;12.60;;;10.90;72.70;;;;;;4981418;28;20462;-86
2022/03/14 01:35:33;;;;;;;22.53;13.03;;;10.90;73.60;;;;;;4985900;28;20492;-87
2022/03/14 01:38:00;;;;;;;19.30;12.80;;;11.00;75.00;;;;;;4983446;28;20456;-87
2022/03/14 01:40:28;;;;;;;17.53;12.57;;;11.00;75.80;;;;;;4987742;28;20499;-85
2022/03/14 01:42:55;;;;;;;20.30;14.23;;;11.10;77.50;;;;;;4992043;28;20456;-87
2022/03/14 01:45:23;;;;;;;19.10;14.50;;;11.10;78.20;;;;;;4994623;28;20448;-87
2022/03/14 01:47:50;;;;;;;20.53;13.80;;;11.30;79.10;;;;;;4993857;28;20422;-85
2022/03/14 01:50:18;;;;;;;21.03;14.90;;;11.40;80.80;;;;;;4985579;28;20511;-87
2022/03/14 01:52:47;;;;;;;21.13;15.80;;;11.40;83.30;;;;;;4984054;28;20856;-87
2022/03/14 01:55:14;;;;;;;20.23;14.00;;;11.60;86.70;;;;;;4983178;28;20464;-88
2022/03/14 01:57:42;;;;;;;21.27;14.97;;;11.50;87.00;;;;;;4986039;28;20427;-87
2022/03/14 02:00:12;;;;;;;20.90;15.37;;;11.50;87.00;;;;;;4990061;28;20468;-86
2022/03/14 02:02:40;;;;;;;19.07;15.00;;;11.60;89.60;;;;;;4989293;28;20501;-88
2022/03/14 02:05:08;;;;;;;29.73;15.97;;;11.50;90.80;;;;;;4990188;28;20464;-87
2022/03/14 02:07:35;;;;;;;21.27;15.63;;;11.50;91.90;;;;;;4992597;28;20525;-87
2022/03/14 02:10:01;;;;;;;21.30;15.33;;;11.40;93.50;;;;;;4994375;28;20487;-87
2022/03/14 02:12:28;;;;;;;22.43;14.60;;;11.40;95.10;;;;;;4995509;28;20454;-88
2022/03/14 02:14:55;;;;;;;20.00;15.03;;;11.30;96.50;;;;;;4993025;28;20484;-88
2022/03/14 02:17:22;;;;;;;20.83;15.60;;;11.40;97.90;;;;;;4993084;28;20502;-87
2022/03/14 02:19:51;;;;;;;19.23;14.93;;;11.30;99.60;;;;;;4995953;28;20476;-85
2022/03/14 02:22:19;;;;;;;22.43;16.97;;;11.20;99.90;;;;;;4990781;28;20946;-86
2022/03/14 02:24:48;;;;;;;22.00;16.43;;;11.20;99.90;;;;;;4989859;28;20523;-87
2022/03/14 02:27:16;;;;;;;21.83;16.93;;;11.30;99.90;;;;;;4989491;28;20431;-87
2022/03/14 02:29:43;;;;;;;23.10;16.60;;;11.40;99.90;;;;;;4988508;28;20522;-88
2022/03/14 02:32:12;;;;;;;19.63;14.83;;;11.40;99.90;;;;;;4987991;28;20432;-87
2022/03/14 02:34:39;;;;;;;24.20;16.83;;;11.40;99.90;;;;;;4996720;28;20436;-86
2022/03/14 02:37:06;;;;;;;20.87;15.10;;;11.40;99.90;;;;;;4992121;28;20864;-87
2022/03/14 02:39:38;;;;;;;19.70;15.10;;;11.40;99.90;;;;;;4990836;28;20954;-87
2022/03/14 02:42:05;;;;;;;22.17;15.77;;;11.60;99.80;;;;;;4986654;28;20444;-86
2022/03/14 02:44:34;;;;;;;25.23;15.90;;;11.60;99.30;;;;;;4986462;28;20456;-89
2022/03/14 02:47:01;;;;;;;22.00;15.50;;;11.50;99.90;;;;;;4987034;28;20435;-87
2022/03/14 02:49:27;;;;;;;20.20;15.67;;;11.40;99.90;;;;;;4984501;28;20509;-86
2022/03/14 02:51:54;;;;;;;21.07;16.00;;;11.30;99.90;;;;;;4983037;28;20871;-87
2022/03/14 02:54:21;;;;;;;21.00;16.53;;;11.30;99.90;;;;;;4985933;28;20495;-87
2022/03/14 02:56:49;;;;;;;21.10;16.03;;;11.20;99.90;;;;;;4986632;28;20431;-87
2022/03/14 02:59:17;;;;;;;23.00;15.93;;;11.20;99.90;;;;;;4984958;28;21050;-87
2022/03/14 03:01:44;;;;;;;25.33;17.97;;;11.20;99.90;;;;;;4985314;28;20460;-88
2022/03/14 03:04:11;;;;;;;23.37;16.03;;;11.10;99.90;;;;;;4985016;28;20412;-88
2022/03/14 03:06:38;;;;;;;23.67;17.53;;;11.00;99.90;;;;;;4984754;28;20464;-87
2022/03/14 03:09:05;;;;;;;25.40;18.70;;;10.90;99.90;;;;;;4984517;28;20534;-87
2022/03/14 03:11:33;;;;;;;21.33;15.63;;;10.80;99.90;;;;;;4984483;28;20418;-87
2022/03/14 03:14:02;;;;;;;27.37;16.73;;;10.80;99.90;;;;;;4985175;28;20498;-88
2022/03/14 03:16:29;;;;;;;26.60;16.83;;;10.60;99.90;;;;;;4990313;28;20464;-86
2022/03/14 03:18:56;;;;;;;26.40;16.90;;;10.60;99.90;;;;;;4986992;28;20479;-88
2022/03/14 03:21:23;;;;;;;24.80;15.70;;;10.40;99.90;;;;;;4983562;28;20485;-89
2022/03/14 03:23:50;;;;;;;21.50;16.03;;;10.40;99.90;;;;;;4986235;28;20544;-87
2022/03/14 03:26:18;;;;;;;21.33;15.73;;;10.40;99.90;;;;;;4985363;28;20459;-87
2022/03/14 03:28:44;;;;;;;24.13;16.53;;;10.30;99.90;;;;;;4993903;28;20456;-87
2022/03/14 03:31:16;;;;;;;24.57;16.07;;;10.30;99.90;;;;;;4994056;28;20900;-87
2022/03/14 03:33:44;;;;;;;23.70;15.93;;;10.20;99.90;;;;;;4984889;28;20541;-88
2022/03/14 03:36:11;;;;;;;22.57;15.67;;;10.20;99.90;;;;;;4984152;28;20452;-88
2022/03/14 03:38:38;;;;;;;20.80;16.63;;;10.20;99.90;;;;;;4982780;28;20454;-86
2022/03/14 03:41:05;;;;;;;22.27;15.83;;;10.20;99.90;;;;;;5005731;23;20498;-84
2022/03/14 03:43:32;;;;;;;21.27;16.40;;;10.20;99.90;;;;;;4983156;28;20448;-85
2022/03/14 03:45:59;;;;;;;21.23;15.87;;;10.20;99.90;;;;;;4986174;28;20448;-84
2022/03/14 03:48:27;;;;;;;22.10;13.30;;;10.10;99.90;;;;;;4994442;28;20464;-85
2022/03/14 03:50:54;;;;;;;17.57;12.87;;;10.20;99.90;;;;;;4982237;28;20514;-85
2022/03/14 03:53:21;;;;;;;18.13;13.57;;;10.40;99.90;;;;;;4982094;28;20492;-85
2022/03/14 03:55:48;;;;;;;20.33;14.73;;;10.30;99.90;;;;;;4984834;28;20447;-85
2022/03/14 03:58:15;;;;;;;17.40;12.17;;;10.30;99.90;;;;;;4987925;28;20468;-85
2022/03/14 04:00:42;;;;;;;19.30;13.70;;;10.30;99.90;;;;;;4994649;28;20563;-85
2022/03/14 04:03:09;;;;;;;17.43;12.43;;;10.30;99.90;;;;;;4980913;28;20458;-86
2022/03/14 04:05:40;;;;;;;14.30;11.57;;;10.40;99.90;;;;;;4980835;28;20479;-85
2022/03/14 04:08:10;;;;;;;16.50;11.77;;;10.40;99.90;;;;;;4982294;28;20446;-85
2022/03/14 04:10:36;;;;;;;16.30;11.60;;;10.30;99.90;;;;;;4980261;28;20523;-85
2022/03/14 04:13:06;;;;;;;15.53;11.40;;;10.30;99.90;;;;;;4978367;28;20487;-85
2022/03/14 04:15:50;;;;;;;13.77;9.47;;;10.40;99.90;;;;;;4989595;28;20452;-85
2022/03/14 04:18:18;;;;;;;14.47;10.17;;;10.30;99.90;;;;;;4989296;28;20424;-85
2022/03/14 04:20:47;;;;;;;14.90;10.17;;;10.50;99.90;;;;;;4985332;28;20579;-85
2022/03/14 04:23:15;;;;;;;26.80;12.80;;;10.50;99.90;;;;;;4979215;28;20452;-86
2022/03/14 04:25:41;;;;;;;13.63;10.07;;;10.40;99.90;;;;;;4987490;28;20467;-85
2022/03/14 04:28:08;;;;;;;17.23;10.50;;;10.30;99.90;;;;;;4989183;28;20444;-86
2022/03/14 04:30:35;;;;;;;13.50;8.77;;;10.40;99.90;;;;;;4979216;28;20473;-86
2022/03/14 04:33:02;;;;;;;17.03;10.70;;;10.50;99.90;;;;;;4979266;28;20594;-84
2022/03/14 04:35:29;;;;;;;15.57;11.40;;;10.60;99.90;;;;;;4979519;28;20464;-86
2022/03/14 04:37:57;;;;;;;17.13;11.47;;;10.60;99.90;;;;;;4983003;28;20514;-86
2022/03/14 04:40:24;;;;;;;17.03;10.77;;;10.60;99.90;;;;;;4985651;28;20469;-86
2022/03/14 04:42:51;;;;;;;18.17;13.00;;;10.60;99.90;;;;;;4981038;28;20452;-86
2022/03/14 04:45:18;;;;;;;15.93;11.50;;;10.40;99.90;;;;;;4981195;28;20444;-86
2022/03/14 04:47:45;;;;;;;14.90;11.63;;;10.60;99.90;;;;;;4984413;28;20993;-86
2022/03/14 04:50:12;;;;;;;17.93;11.57;;;10.60;99.90;;;;;;4980429;28;20563;-86
2022/03/14 04:52:39;;;;;;;16.27;11.50;;;10.50;99.90;;;;;;4982618;28;20509;-86
2022/03/14 04:55:08;;;;;;;14.43;10.90;;;10.40;99.90;;;;;;4983004;28;20504;-86
2022/03/14 04:57:35;;;;;;;14.50;8.30;;;10.30;99.90;;;;;;4992754;28;20944;-86
2022/03/14 05:00:04;;;;;;;15.67;8.30;;;10.40;99.90;;;;;;4983199;28;20427;-86
2022/03/14 05:02:31;;;;;;;9.10;6.57;;;10.30;99.90;;;;;;4993848;28;20507;-85
2022/03/14 05:04:58;;;;;;;10.33;6.43;;;10.40;99.90;;;;;;4980479;28;20514;-85
2022/03/14 05:07:25;;;;;;;7.83;5.90;;;10.30;99.90;;;;;;4980363;28;20452;-85
2022/03/14 05:09:51;;;;;;;8.63;4.80;;;10.30;99.90;;;;;;4978528;28;20538;-86
2022/03/14 05:12:20;;;;;;;7.70;4.47;;;10.20;99.90;;;;;;4980120;28;20430;-86
2022/03/14 05:14:46;;;;;;;7.00;3.80;;;10.30;99.90;;;;;;4980813;28;20512;-86
2022/03/14 05:17:13;;;;;;;5.10;3.10;;;10.20;99.90;;;;;;4989848;28;20807;-85
2022/03/14 05:19:40;;;;;;;7.27;2.60;;;10.20;99.90;;;;;;4979291;28;20483;-85
2022/03/14 05:22:07;;;;;;;4.50;2.10;;;10.20;99.90;;;;;;4988477;28;20508;-86
2022/03/14 05:24:34;;;;;;;4.17;1.90;;;10.20;99.90;;;;;;4985000;28;21015;-86
2022/03/14 05:27:01;;;;;;;4.23;2.07;;;10.20;99.90;;;;;;4987439;28;20464;-85
2022/03/14 05:29:29;;;;;;;3.67;1.80;;;10.30;99.90;;;;;;4983773;28;20571;-86
2022/03/14 05:31:56;;;;;;;4.20;2.03;;;10.20;99.90;;;;;;4981116;28;20555;-86
2022/03/14 05:34:23;;;;;;;3.43;1.67;;;10.30;99.90;;;;;;4989335;28;20483;-85
2022/03/14 05:36:50;;;;;;;4.10;2.30;;;10.30;99.90;;;;;;4989450;28;20472;-86
2022/03/14 05:39:17;;;;;;;5.03;2.40;;;10.30;99.90;;;;;;4979879;28;20456;-86
2022/03/14 05:41:44;;;;;;;3.90;2.20;;;10.30;99.90;;;;;;4982783;28;20492;-86
2022/03/14 05:44:25;;;;;;;8.90;2.53;;;10.20;99.90;;;;;;4981118;28;20520;-87
2022/03/14 05:46:58;;;;;;;3.70;1.97;;;10.30;99.90;;;;;;4993939;28;20427;-86
2022/03/14 05:49:25;;;;;;;6.60;2.80;;;10.20;99.90;;;;;;4986989;28;20487;-86
2022/03/14 05:51:52;;;;;;;4.90;2.53;;;10.20;99.90;;;;;;4983611;28;20463;-86
2022/03/14 05:54:19;;;;;;;3.87;1.83;;;10.20;99.90;;;;;;4982327;28;20498;-86
2022/03/14 05:56:46;;;;;;;4.83;1.80;;;10.20;99.90;;;;;;4987327;28;20523;-86
2022/03/14 05:59:14;;;;;;;3.40;1.50;;;10.10;99.90;;;;;;4993159;28;20444;-86
2022/03/14 06:01:43;;;;;;;3.13;1.40;;;10.10;99.90;;;;;;4996742;28;20459;-87
2022/03/14 06:04:11;;;;;;;4.37;1.50;;;10.00;99.90;;;;;;4987496;28;20444;-86
2022/03/14 06:06:38;;;;;;;2.87;1.20;;;10.00;99.90;;;;;;4997160;28;20460;-86
2022/03/14 06:09:07;;;;;;;2.70;1.17;;;10.10;99.90;;;;;;4981389;28;20455;-86
2022/03/14 06:11:42;;;;;;;2.60;1.00;;;10.00;99.90;;;;;;4982524;28;20480;-86
2022/03/14 06:14:11;;;;;;;5.83;0.90;;;10.00;99.90;;;;;;4990167;28;20498;-86
2022/03/14 06:16:38;;;;;;;3.03;1.17;;;10.00;99.90;;;;;;4998019;28;20456;-86
2022/03/14 06:19:05;;;;;;;3.00;1.23;;;10.00;99.90;;;;;;4997683;28;20523;-86
2022/03/14 06:21:34;;;;;;;16.63;1.60;;;10.00;99.90;;;;;;4990739;28;20499;-86
2022/03/14 06:24:01;;;;;;;2.80;1.03;;;9.90;99.90;;;;;;4980773;28;20528;-86
2022/03/14 06:26:28;;;;;;;6.40;1.67;;;10.00;99.90;;;;;;4981102;28;20487;-85
2022/03/14 06:28:55;;;;;;;3.73;1.33;;;9.90;99.90;;;;;;4987322;28;20459;-87
2022/03/14 06:31:22;;;;;;;3.47;1.27;;;9.80;99.90;;;;;;4981589;28;20495;-85
2022/03/14 06:33:56;;;;;;;3.80;1.20;;;9.80;99.90;;;;;;4982710;28;20510;-86
2022/03/14 06:36:31;;;;;;;3.03;1.07;;;9.90;99.90;;;;;;4982184;28;20479;-87
2022/03/14 06:39:03;;;;;;;5.07;1.27;;;9.90;99.90;;;;;;4984030;28;20498;-86
2022/03/14 06:41:31;;;;;;;5.30;1.30;;;9.90;99.90;;;;;;4995914;28;20476;-85
2022/03/14 06:44:02;;;;;;;3.00;1.10;;;9.90;99.90;;;;;;4995482;28;20479;-86
2022/03/14 06:46:32;;;;;;;3.17;1.40;;;9.90;99.90;;;;;;4994526;28;20519;-86
2022/03/14 06:48:59;;;;;;;6.23;1.50;;;9.80;99.90;;;;;;4992387;28;20490;-86
2022/03/14 06:51:37;;;;;;;5.60;1.60;;;9.80;99.90;;;;;;4992758;28;20475;-86
2022/03/14 06:54:05;;;;;;;6.03;1.53;;;9.90;99.90;;;;;;4996318;28;20508;-86
2022/03/14 06:56:32;;;;;;;4.70;2.70;;;9.90;99.90;;;;;;4998121;28;20436;-86
2022/03/14 06:59:00;;;;;;;3.00;1.30;;;9.90;99.90;;;;;;4986429;28;20911;-85
2022/03/14 07:01:30;;;;;;;4.23;1.80;;;9.90;99.90;;;;;;4981334;28;20633;-85
2022/03/14 07:03:57;;;;;;;5.80;1.60;;;9.80;99.90;;;;;;4981139;28;20801;-85
2022/03/14 07:06:24;;;;;;;5.37;1.40;;;9.80;99.90;;;;;;4996150;28;20424;-85
2022/03/14 07:08:51;;;;;;;3.70;1.03;;;9.70;99.90;;;;;;4991683;28;20491;-85
2022/03/14 07:11:19;;;;;;;3.13;1.23;;;9.70;99.90;;;;;;4993173;28;20537;-85
2022/03/14 07:13:48;;;;;;;4.60;1.60;;;9.70;99.90;;;;;;4987686;28;20906;-86
2022/03/14 07:16:14;;;;;;;3.07;0.97;;;9.70;99.90;;;;;;4988961;28;20942;-86
2022/03/14 07:18:41;;;;;;;3.60;1.20;;;9.70;99.90;;;;;;4986863;28;20564;-86
2022/03/14 07:21:08;;;;;;;6.30;1.20;;;9.80;99.90;;;;;;4985213;28;20583;-85
2022/03/14 07:23:37;;;;;;;3.93;1.33;;;9.80;99.90;;;;;;4987787;28;20422;-85
2022/03/14 07:26:06;;;;;;;3.73;1.17;;;9.90;99.90;;;;;;4979699;28;20487;-86
2022/03/14 07:28:35;;;;;;;7.30;1.37;;;10.00;99.90;;;;;;4984262;28;20528;-86
2022/03/14 07:31:02;;;;;;;3.57;1.10;;;10.00;99.90;;;;;;4997639;28;20495;-86
2022/03/14 07:33:32;;;;;;;2.90;1.00;;;10.10;99.90;;;;;;4989053;28;20515;-86
2022/03/14 07:35:59;;;;;;;5.13;0.80;;;10.20;99.90;;;;;;4980971;28;20497;-86
2022/03/14 07:38:26;;;;;;;3.47;0.80;;;10.30;99.90;;;;;;4985008;28;20460;-86
2022/03/14 07:40:53;;;;;;;3.33;0.93;;;10.40;99.90;;;;;;4983791;28;20492;-87
2022/03/14 07:43:21;;;;;;;4.20;1.10;;;10.50;99.90;;;;;;4982672;28;20615;-88
2022/03/14 07:45:50;;;;;;;5.20;1.33;;;10.40;99.90;;;;;;4995121;28;20514;-87
2022/03/14 07:48:17;;;;;;;3.80;1.20;;;10.50;99.90;;;;;;4980432;28;20833;-86
2022/03/14 07:50:44;;;;;;;3.53;1.23;;;10.60;99.90;;;;;;4979628;28;20491;-87
2022/03/14 07:53:26;;;;;;;4.10;1.20;;;10.60;99.90;;;;;;4980736;28;20549;-87
2022/03/14 07:55:53;;;;;;;5.30;1.13;;;10.60;99.90;;;;;;4984564;28;20535;-87
2022/03/14 07:58:27;;;;;;;2.83;1.00;;;10.70;99.90;;;;;;4993619;28;20468;-87
2022/03/14 08:00:59;;;;;;;2.90;1.00;;;10.80;99.90;;;;;;5004411;23;20493;-89
2022/03/14 08:03:36;;;;;;;;;;;;;;;;;;;;;
2022/03/14 08:06:04;;;;;;;3.40;1.23;;;10.90;99.90;;;;;;4963185;29;20420;-88
2022/03/14 08:08:31;;;;;;;3.13;1.20;;;11.10;99.90;;;;;;4967963;28;20513;-88
2022/03/14 08:11:07;;;;;;;2.60;1.00;;;11.20;99.90;;;;;;4969284;28;20480;-87
2022/03/14 08:14:05;;;;;;;5.43;1.40;;;11.20;99.90;;;;;;4965306;28;20769;-86
2022/03/14 08:16:36;;;;;;;4.90;1.20;;;11.40;99.90;;;;;;4963122;28;20457;-86
2022/03/14 08:19:10;;;;;;;3.93;1.10;;;11.40;99.90;;;;;;4962415;28;20428;-87
2022/03/14 08:21:51;;;;;;;3.10;1.30;;;11.50;99.90;;;;;;4970360;28;20466;-87
2022/03/14 08:24:20;;;;;;;3.63;0.87;;;11.50;99.90;;;;;;4977248;28;20471;-87
2022/03/14 08:27:22;;;;;;;8.13;1.73;;;11.60;99.90;;;;;;4975449;28;20487;-86
2022/03/14 08:30:35;;;;;;;3.20;1.00;;;11.70;99.90;;;;;;4967530;28;20448;-85
2022/03/14 08:37:02;;;;;;;3.60;1.17;;;11.50;99.90;;;;;;4964131;28;20565;-87
2022/03/14 08:39:37;;;;;;;6.03;1.10;;;11.40;99.90;;;;;;4962501;28;20465;-87
2022/03/14 08:45:50;;;;;;;4.10;1.40;;;11.50;99.90;;;;;;4951315;28;20448;-87
2022/03/14 08:48:20;;;;;;;4.80;1.60;;;11.50;99.90;;;;;;4961119;28;20806;-88
2022/03/14 08:51:22;;;;;;;5.70;1.00;;;11.50;99.90;;;;;;4965525;28;20469;-86
2022/03/14 08:54:09;;;;;;;3.13;1.20;;;11.50;99.90;;;;;;4967588;29;20453;-87
2022/03/14 09:00:12;;;;;;;6.30;1.27;;;11.60;99.90;;;;;;4914525;28;20481;-86
2022/03/14 09:02:46;;;;;;;5.33;1.30;;;11.80;99.90;;;;;;4961989;28;20913;-87
2022/03/14 09:05:25;;;;;;;4.50;1.10;;;11.90;99.90;;;;;;4964202;28;20422;-85
2022/03/14 09:08:03;;;;;;;6.67;1.73;;;11.80;99.90;;;;;;4971890;28;20439;-86
2022/03/14 09:10:36;;;;;;;5.03;1.10;;;11.80;99.30;;;;;;4961558;28;20476;-86
2022/03/14 09:13:05;;;;;;;4.77;1.20;;;11.80;99.50;;;;;;4961798;28;20461;-87
2022/03/14 09:15:53;;;;;;;5.80;1.10;;;11.90;99.90;;;;;;4964292;28;20544;-87
2022/03/14 09:21:43;;;;;;;3.40;1.20;;;11.80;99.20;;;;;;5061628;23;20510;-87
2022/03/14 09:24:19;;;;;;;4.30;1.07;;;11.70;98.90;;;;;;4982592;28;20467;-87
2022/03/14 09:26:46;;;;;;;6.43;1.33;;;11.80;98.40;;;;;;4985244;28;20498;-89
2022/03/14 09:29:15;;;;;;;6.87;1.53;;;12.00;98.20;;;;;;4983765;28;20472;-86
2022/03/14 09:31:44;;;;;;;5.33;1.30;;;12.10;97.90;;;;;;4982869;28;20427;-87
2022/03/14 09:34:25;;;;;;;4.37;1.23;;;12.10;97.70;;;;;;4980010;28;20440;-87
2022/03/14 09:37:02;;;;;;;5.80;1.60;;;12.20;97.70;;;;;;4980666;28;20594;-87
2022/03/14 09:39:40;;;;;;;5.23;1.70;;;12.10;97.50;;;;;;4979057;28;20419;-87
2022/03/14 09:42:11;;;;;;;5.83;1.43;;;12.20;97.40;;;;;;4979258;28;20498;-87
2022/03/14 09:44:42;;;;;;;4.87;1.70;;;12.20;97.10;;;;;;4980344;28;20795;-88
2022/03/14 09:47:11;;;;;;;8.70;1.80;;;12.20;97.10;;;;;;4979119;28;20445;-87
2022/03/14 09:49:40;;;;;;;9.17;2.00;;;12.40;97.00;;;;;;4980259;28;20825;-87
2022/03/14 09:52:11;;;;;;;4.10;1.30;;;12.40;96.60;;;;;;4985344;28;20801;-88
2022/03/14 09:54:38;;;;;;;5.30;1.30;;;12.50;96.20;;;;;;4987221;28;20516;-87
2022/03/14 09:57:05;;;;;;;3.63;1.00;;;12.60;95.50;;;;;;4983404;28;20452;-87
2022/03/14 09:59:32;;;;;;;6.40;1.90;;;12.60;95.70;;;;;;4986377;28;20471;-87
2022/03/14 10:02:04;;;;;;;5.13;1.67;;;12.70;95.80;;;;;;4988085;28;20467;-88
2022/03/14 10:04:31;;;;;;;4.13;1.20;;;12.70;95.00;;;;;;4983973;28;20429;-87
2022/03/14 10:07:02;;;;;;;8.17;1.50;;;12.80;94.30;;;;;;4982677;28;20512;-86
2022/03/14 10:09:30;;;;;;;8.67;2.40;;;12.80;94.50;;;;;;4978917;28;20439;-86
2022/03/14 10:11:57;;;;;;;6.83;1.50;;;12.80;94.10;;;;;;4978128;28;20431;-87
2022/03/14 10:14:25;;;;;;;3.50;1.10;;;12.90;94.00;;;;;;4978661;28;20478;-87
2022/03/14 10:16:54;;;;;;;5.00;1.50;;;12.90;93.00;;;;;;4987669;28;20442;-88
2022/03/14 10:19:40;;;;;;;4.10;1.53;;;12.90;92.70;;;;;;4985768;28;20460;-88
2022/03/14 10:22:20;;;;;;;6.03;1.40;;;13.00;92.80;;;;;;4983492;28;20419;-89
2022/03/14 10:24:55;;;;;;;5.70;1.97;;;13.10;92.60;;;;;;4991485;28;20480;-87
2022/03/14 10:27:27;;;;;;;7.57;1.70;;;13.20;92.80;;;;;;4988700;28;20472;-88
2022/03/14 10:29:57;;;;;;;4.07;1.40;;;13.30;92.90;;;;;;4981834;28;20539;-87
2022/03/14 10:32:36;;;;;;;4.70;1.83;;;13.40;92.80;;;;;;4984149;28;20430;-87
2022/03/14 10:35:38;;;;;;;5.93;1.50;;;13.40;92.30;;;;;;4998675;28;20438;-87
2022/03/14 10:38:16;;;;;;;4.33;1.10;;;13.40;91.40;;;;;;4935675;29;20445;-89
2022/03/14 10:40:52;;;;;;;6.53;1.20;;;13.50;91.30;;;;;;4996439;28;20550;-87
2022/03/14 10:43:25;;;;;;;4.67;1.20;;;13.60;91.60;;;;;;4981965;28;20419;-87
2022/03/14 10:45:54;;;;;;;6.17;1.27;;;13.80;90.90;;;;;;4983915;28;20444;-87
2022/03/14 10:48:35;;;;;;;6.40;1.73;;;13.70;91.00;;;;;;4996422;28;20531;-87
2022/03/14 10:51:22;;;;;;;4.33;1.40;;;13.70;91.00;;;;;;4980487;28;20482;-88
2022/03/14 10:53:53;;;;;;;4.63;1.67;;;13.80;90.00;;;;;;4985546;28;20870;-87
2022/03/14 10:56:44;;;;;;;4.60;1.30;;;13.70;87.50;;;;;;4981668;28;20458;-87
2022/03/14 10:59:18;;;;;;;4.00;1.00;;;13.80;86.10;;;;;;4982406;28;20768;-87
2022/03/14 11:02:04;;;;;;;4.27;1.50;;;13.80;85.40;;;;;;4984249;28;20532;-86
2022/03/14 11:04:41;;;;;;;4.77;1.30;;;14.00;86.50;;;;;;4989775;28;20491;-87
2022/03/14 11:11:05;;;;;;;5.00;1.47;;;14.10;85.20;;;;;;4983171;28;20526;-88
2022/03/14 11:13:43;;;;;;;4.43;1.97;;;13.80;84.60;;;;;;4976240;28;20441;-88
2022/03/14 11:16:25;;;;;;;4.50;1.70;;;13.90;85.10;;;;;;4990791;28;20553;-87
2022/03/14 11:19:18;;;;;;;4.83;1.33;;;14.10;84.90;;;;;;4985603;28;20942;-88
2022/03/14 11:24:56;;;;;;;5.23;1.50;;;14.40;83.80;;;;;;4993173;28;20436;-87
2022/03/14 11:27:24;;;;;;;3.70;1.40;;;14.40;83.50;;;;;;4981024;28;20943;-87
2022/03/14 11:30:11;;;;;;;3.77;1.10;;;14.50;82.90;;;;;;4980474;28;20450;-88
2022/03/14 11:32:43;;;;;;;5.70;1.77;;;14.40;82.60;;;;;;4980892;28;20453;-88
2022/03/14 11:35:15;;;;;;;4.83;1.30;;;14.30;82.80;;;;;;4980800;28;20570;-88
2022/03/14 11:38:12;;;;;;;5.40;1.53;;;14.30;83.40;;;;;;4982454;28;20462;-86
2022/03/14 11:40:45;;;;;;;7.03;1.80;;;14.30;82.80;;;;;;4982768;28;20503;-88
2022/03/14 11:43:30;;;;;;;3.80;1.27;;;14.30;82.50;;;;;;4982544;28;20508;-88
2022/03/14 11:46:11;;;;;;;5.70;1.93;;;14.40;82.00;;;;;;4982715;28;20867;-88
2022/03/14 11:48:50;;;;;;;4.67;1.50;;;14.50;81.70;;;;;;4990770;28;20439;-88
2022/03/14 11:51:49;;;;;;;4.37;1.70;;;14.50;81.90;;;;;;4993060;28;20443;-87
2022/03/14 11:54:52;;;;;;;4.17;1.13;;;14.50;82.40;;;;;;5335464;23;20509;-87
2022/03/14 11:57:45;;;;;;;7.03;1.27;;;14.50;83.10;;;;;;4987048;28;20483;-87
2022/03/14 12:04:44;;;;;;;4.03;1.40;;;14.50;82.70;;;;;;4975386;28;20432;-86
2022/03/14 12:08:10;;;;;;;;;;;;;;;;;;;;;
2022/03/14 12:15:07;;;;;;;4.47;1.40;;;14.70;79.50;;;;;;4760691;30;20507;-87
2022/03/14 12:45:36;;;;;;;3.10;0.87;;;15.00;77.10;;;;;;4982713;28;20427;-87
2022/03/14 13:02:35;;;;;;;3.13;0.93;;;15.60;73.00;;;;;;4788332;29;20561;-88
2022/03/14 13:12:30;;;;;;;5.33;1.10;;;15.40;73.70;;;;;;4878220;29;20507;-87
2022/03/14 13:26:01;;;;;;;2.90;0.90;;;15.30;75.10;;;;;;4822799;29;20809;-88
2022/03/14 14:32:40;;;;;;;4.90;1.57;;;15.20;78.20;;;;;;4910152;28;20445;-86
2022/03/14 14:41:45;;;;;;;5.90;1.77;;;14.90;77.80;;;;;;4971210;28;20459;-88
2022/03/14 14:44:20;;;;;;;5.30;1.47;;;14.90;78.10;;;;;;4966214;29;20524;-87
2022/03/14 14:47:11;;;;;;;4.17;1.30;;;15.00;78.50;;;;;;4965766;29;20408;-87
2022/03/14 14:49:42;;;;;;;7.93;1.40;;;14.80;78.70;;;;;;4972074;28;20486;-87
2022/03/14 14:52:38;;;;;;;3.93;1.20;;;14.90;79.10;;;;;;4972820;28;20457;-88
2022/03/14 14:55:29;;;;;;;5.27;1.50;;;15.00;79.20;;;;;;4962635;28;20427;-87
2022/03/14 15:04:24;;;;;;;4.17;1.70;;;15.20;78.50;;;;;;4983729;28;20490;-87
2022/03/14 15:06:53;;;;;;;7.80;1.23;;;15.20;77.80;;;;;;4983423;28;20414;-87
2022/03/14 15:09:29;;;;;;;4.60;1.47;;;15.20;77.60;;;;;;4985048;28;20437;-87
2022/03/14 15:12:08;;;;;;;5.73;1.50;;;15.30;77.80;;;;;;4985593;28;20490;-87
2022/03/14 15:15:00;;;;;;;5.73;1.40;;;15.10;77.30;;;;;;4983021;28;20419;-87
2022/03/14 15:20:29;;;;;;;3.63;1.20;;;15.10;77.80;;;;;;4982695;28;20880;-86
2022/03/14 15:23:13;;;;;;;6.73;1.50;;;15.00;77.90;;;;;;4983713;28;20452;-87
2022/03/14 15:25:58;;;;;;;4.97;1.50;;;14.90;78.70;;;;;;4984984;28;20440;-86
2022/03/14 15:31:17;;;;;;;4.63;1.47;;;15.20;77.90;;;;;;4985782;28;20936;-87
2022/03/14 15:36:34;;;;;;;4.60;1.20;;;15.20;78.20;;;;;;4995760;28;20519;-86
2022/03/14 15:42:41;;;;;;;3.73;1.20;;;14.90;79.30;;;;;;4966551;29;20835;-87
2022/03/14 22:48:05;;;;;;;8.95;4.57;;;8.60;99.90;;;;;;5711304;23;20501;-86
2022/03/14 22:50:54;;;;;;;10.47;4.20;;;8.50;99.90;;;;;;4973449;28;20220;-86
2022/03/14 22:53:26;;;;;;;8.43;3.70;;;8.50;99.90;;;;;;4966802;28;20429;-86
2022/03/14 22:56:12;;;;;;;7.70;4.30;;;8.50;99.90;;;;;;4966393;29;20810;-87
2022/03/14 22:58:53;;;;;;;6.70;3.90;;;8.60;99.90;;;;;;4964396;28;20577;-87
2022/03/14 23:01:28;;;;;;;6.80;3.93;;;8.50;99.90;;;;;;4976691;28;20451;-87
2022/03/14 23:06:41;;;;;;;8.33;3.13;;;8.40;99.90;;;;;;4965167;29;20468;-86
2022/03/14 23:12:18;;;;;;;7.93;4.40;;;8.60;99.90;;;;;;4955292;29;20457;-86
2022/03/14 23:14:53;;;;;;;9.20;3.77;;;8.60;99.90;;;;;;4968017;28;20457;-86
2022/03/14 23:17:24;;;;;;;7.27;3.13;;;8.60;99.90;;;;;;4966932;28;20493;-85